createdAt,value
2019-04-26T00:04:28.493Z,57.30
2019-04-26T00:11:18.174Z,58.70
2019-04-26T00:18:04.724Z,59.70
2019-04-26T00:24:50.616Z,59.90
2019-04-26T00:31:35.454Z,59.70
2019-04-26T00:38:20.488Z,59.70
2019-04-26T00:45:06.571Z,60.80
2019-04-26T00:51:52.132Z,61.70
2019-04-26T00:58:38.503Z,61.50
2019-04-26T01:05:25.143Z,61.80
2019-04-26T01:12:10.619Z,61.50
2019-04-26T01:18:56.812Z,61.60
2019-04-26T01:25:50.818Z,61.70
2019-04-26T01:32:38.815Z,62.60
2019-04-26T01:39:24.283Z,62.20
2019-04-26T01:46:16.293Z,62.20
2019-04-26T01:53:02.082Z,62.20
2019-04-26T01:59:51.579Z,61.70
2019-04-26T02:06:36.684Z,61.20
2019-04-26T02:13:24.829Z,60.80
2019-04-26T02:20:09.612Z,60.10
2019-04-26T02:26:54.984Z,59.00
2019-04-26T02:33:39.911Z,58.90
2019-04-26T02:40:26.125Z,58.80
2019-04-26T02:47:39.018Z,59.70
2019-04-26T02:54:29.685Z,60.60
2019-04-26T03:01:14.946Z,61.10
2019-04-26T03:08:03.922Z,61.10
2019-04-26T03:15:12.197Z,60.30
2019-04-26T03:21:52.787Z,60.30
2019-04-26T03:28:43.922Z,60.00
2019-04-26T03:35:57.347Z,59.00
2019-04-26T03:42:59.097Z,58.80
2019-04-26T03:49:55.749Z,58.30
2019-04-26T03:56:49.144Z,59.40
2019-04-26T04:03:41.622Z,59.30
2019-04-26T04:10:28.556Z,59.20
2019-04-26T04:17:23.501Z,59.40
2019-04-26T04:24:11.202Z,59.50
2019-04-26T04:30:59.361Z,60.50
2019-04-26T04:38:09.570Z,60.90
2019-04-26T04:45:26.065Z,59.30
2019-04-26T04:52:19.694Z,57.70
2019-04-26T04:59:13.544Z,56.60
2019-04-26T05:06:09.010Z,56.20
2019-04-26T05:12:59.697Z,55.70
2019-04-26T05:20:03.127Z,55.50
2019-04-26T05:27:20.141Z,54.90
2019-04-26T05:34:41.144Z,54.90
2019-04-26T05:41:57.797Z,55.20
2019-04-26T05:48:56.404Z,55.30
2019-04-26T05:56:05.017Z,55.40
2019-04-26T06:03:11.127Z,56.00
2019-04-26T06:10:09.542Z,56.00
2019-04-26T06:17:13.494Z,55.40
2019-04-26T06:24:07.122Z,55.30
2019-04-26T06:30:57.210Z,56.40
2019-04-26T06:38:12.111Z,57.80
2019-04-26T06:45:07.728Z,57.50
2019-04-26T06:51:58.498Z,57.90
2019-04-26T06:59:09.019Z,57.90
2019-04-26T07:06:04.425Z,57.90
2019-04-26T07:13:28.671Z,59.10
2019-04-26T07:20:21.711Z,60.30
2019-04-26T07:27:18.992Z,61.30
2019-04-26T07:34:11.636Z,62.20
2019-04-26T07:41:09.856Z,63.00
2019-04-26T07:48:19.734Z,63.70
2019-04-26T07:55:24.325Z,63.00
2019-04-26T08:02:13.991Z,63.00
2019-04-26T08:09:25.056Z,63.70
2019-04-26T08:16:06.729Z,62.70
2019-04-26T08:22:54.963Z,62.60
2019-04-26T08:29:43.407Z,62.50
2019-04-26T08:36:32.757Z,61.60
2019-04-26T08:43:37.394Z,61.50
2019-04-26T08:50:25.047Z,61.30
2019-04-26T08:57:12.615Z,60.70
2019-04-26T09:04:13.982Z,61.60
2019-04-26T09:11:01.723Z,60.40
2019-04-26T09:17:46.735Z,61.40
2019-04-26T09:24:36.010Z,60.10
2019-04-26T09:31:25.607Z,60.40
2019-04-26T09:38:10.607Z,58.40
2019-04-26T09:45:13.467Z,57.70
2019-04-26T09:51:58.822Z,55.50
2019-04-26T09:58:43.692Z,56.40
2019-04-26T10:05:29.072Z,55.70
2019-04-26T10:12:16.219Z,57.40
2019-04-26T10:19:04.149Z,57.60
2019-04-26T10:25:52.026Z,56.80
2019-04-26T10:32:36.163Z,59.10
2019-04-26T10:39:21.206Z,57.90
2019-04-26T10:46:06.531Z,56.20
2019-04-26T10:53:08.704Z,57.20
2019-04-26T10:59:55.247Z,54.20
2019-04-26T11:06:41.247Z,56.10
2019-04-26T11:13:26.558Z,55.20
2019-04-26T11:20:12.066Z,54.60
2019-04-26T11:26:57.118Z,56.60
2019-04-26T11:33:44.951Z,56.20
2019-04-26T11:40:30.364Z,55.60
2019-04-26T11:47:15.496Z,53.80
2019-04-26T11:54:00.600Z,54.60
2019-04-26T12:00:47.333Z,56.00
2019-04-26T12:07:34.017Z,56.90
2019-04-26T12:14:20.379Z,57.20
2019-04-26T12:21:06.131Z,53.80
2019-04-26T12:27:53.605Z,52.60
2019-04-26T12:34:38.723Z,54.20
2019-04-26T12:41:39.476Z,53.40
2019-04-26T12:48:12.403Z,49.50
2019-04-26T12:54:58.681Z,49.20
2019-04-26T13:01:46.366Z,52.00
2019-04-26T13:08:30.659Z,51.50
2019-04-26T13:15:52.056Z,52.10
2019-04-26T13:22:45.849Z,53.00
2019-04-26T13:29:27.261Z,54.20
2019-04-26T13:36:10.560Z,53.50
2019-04-26T13:42:55.557Z,52.30
2019-04-26T13:49:42.510Z,54.60
2019-04-26T13:56:27.669Z,55.80
2019-04-26T14:03:15.262Z,55.80
2019-04-26T14:10:00.363Z,55.90
2019-04-26T14:16:45.411Z,54.80
2019-04-26T14:23:45.340Z,54.80
2019-04-26T14:30:31.423Z,52.50
2019-04-26T14:37:16.727Z,52.90
2019-04-26T14:44:14.780Z,51.30
2019-04-26T14:50:53.010Z,52.00
2019-04-26T14:57:35.762Z,52.40
2019-04-26T15:04:34.392Z,50.30
2019-04-26T15:11:19.671Z,48.50
2019-04-26T15:18:05.280Z,49.80
2019-04-26T15:24:52.241Z,50.40
2019-04-26T15:31:37.333Z,49.60
2019-04-26T15:38:23.293Z,50.50
2019-04-26T15:45:15.852Z,50.30
2019-04-26T15:52:00.941Z,48.80
2019-04-26T15:58:48.913Z,49.30
2019-04-26T16:05:33.664Z,48.00
2019-04-26T16:12:20.289Z,48.80
2019-04-26T16:19:05.935Z,48.10
2019-04-26T16:25:52.538Z,49.50
2019-04-26T16:32:59.921Z,48.70
2019-04-26T16:39:48.587Z,49.90
2019-04-26T16:46:33.350Z,50.70
2019-04-26T16:53:37.789Z,51.30
2019-04-26T17:00:06.527Z,51.90
2019-04-26T17:06:53.084Z,53.10
2019-04-26T17:13:48.222Z,53.40
2019-04-26T17:20:24.894Z,53.30
2019-04-26T17:27:14.390Z,55.30
2019-04-26T17:33:58.315Z,55.60
2019-04-26T17:40:46.153Z,55.90
2019-04-26T17:47:34.687Z,57.50
2019-04-26T17:54:40.446Z,57.60
2019-04-26T18:01:05.173Z,58.10
2019-04-26T18:07:58.001Z,59.90
2019-04-26T18:14:37.258Z,59.60
2019-04-26T18:21:30.145Z,60.20
2019-04-26T18:28:16.744Z,61.20
2019-04-26T18:35:02.136Z,61.60
2019-04-26T18:41:47.907Z,63.10
2019-04-26T18:48:35.244Z,63.40
2019-04-26T18:55:28.887Z,64.30
2019-04-26T19:02:11.561Z,64.80
2019-04-26T19:08:57.588Z,65.40
2019-04-26T19:16:01.865Z,65.80
2019-04-26T19:22:53.211Z,67.00
2019-04-26T19:29:37.547Z,66.90
2019-04-26T19:36:26.169Z,66.60
2019-04-26T19:43:12.105Z,66.40
2019-04-26T19:50:03.081Z,66.30
2019-04-26T19:57:01.033Z,66.70
2019-04-26T20:03:47.370Z,65.70
2019-04-26T20:10:36.211Z,66.30
2019-04-26T20:17:21.812Z,65.50
2019-04-26T20:24:06.995Z,64.80
2019-04-26T20:31:12.190Z,64.30
2019-04-26T20:38:06.179Z,64.50
2019-04-26T20:44:53.809Z,63.90
2019-04-26T20:51:40.761Z,64.20
2019-04-26T20:58:26.076Z,63.80
2019-04-26T21:05:14.707Z,63.20
2019-04-26T21:11:58.146Z,62.80
2019-04-26T21:18:44.392Z,62.50
2019-04-26T21:25:32.562Z,62.40
2019-04-26T21:32:24.615Z,61.90
2019-04-26T21:39:10.636Z,62.10
2019-04-26T21:46:07.303Z,62.90
2019-04-26T21:52:43.342Z,62.80
2019-04-26T21:59:35.216Z,63.80
2019-04-26T22:06:19.804Z,64.10
2019-04-26T22:13:05.688Z,61.80
2019-04-26T22:20:12.940Z,61.70
2019-04-26T22:26:56.369Z,61.50
2019-04-26T22:33:42.847Z,61.60
2019-04-26T22:40:28.203Z,61.70
2019-04-26T22:47:24.467Z,62.10
2019-04-26T22:54:09.644Z,61.80
2019-04-26T23:00:58.425Z,61.90
2019-04-26T23:07:41.609Z,61.60
2019-04-26T23:14:34.357Z,61.60
2019-04-26T23:21:25.023Z,61.40
2019-04-26T23:28:11.204Z,61.30
2019-04-26T23:34:58.207Z,61.40
2019-04-26T23:41:44.592Z,61.30
2019-04-26T23:48:29.917Z,62.30
2019-04-26T23:55:15.118Z,63.60
